sensor_id;sensor_type;location;lat;lon;timestamp;temperature;humidity
19172;DHT22;9718;52.200;21.052;2022-07-30T00:02:20;18.20;99.90
19172;DHT22;9718;52.200;21.052;2022-07-30T00:05:04;18.20;99.90
19172;DHT22;9718;52.200;21.052;2022-07-30T00:08:05;18.30;99.90
19172;DHT22;9718;52.200;21.052;2022-07-30T00:10:47;18.30;99.90
19172;DHT22;9718;52.200;21.052;2022-07-30T00:13:30;18.20;99.90
19172;DHT22;9718;52.200;21.052;2022-07-30T00:16:12;18.10;99.90
19172;DHT22;9718;52.200;21.052;2022-07-30T00:19:14;18.10;99.90
19172;DHT22;9718;52.200;21.052;2022-07-30T00:21:56;18.10;99.90
19172;DHT22;9718;52.200;21.052;2022-07-30T00:24:38;18.20;99.90
19172;DHT22;9718;52.200;21.052;2022-07-30T00:27:20;18.20;99.90
19172;DHT22;9718;52.200;21.052;2022-07-30T00:30:21;18.10;99.90
19172;DHT22;9718;52.200;21.052;2022-07-30T00:33:03;18.10;99.90
19172;DHT22;9718;52.200;21.052;2022-07-30T00:35:48;18.00;99.90
19172;DHT22;9718;52.200;21.052;2022-07-30T00:38:30;18.00;99.90
19172;DHT22;9718;52.200;21.052;2022-07-30T00:41:32;18.00;99.90
19172;DHT22;9718;52.200;21.052;2022-07-30T00:44:14;18.00;99.90
19172;DHT22;9718;52.200;21.052;2022-07-30T00:47:16;18.00;99.90
19172;DHT22;9718;52.200;21.052;2022-07-30T00:49:57;18.00;99.90
19172;DHT22;9718;52.200;21.052;2022-07-30T00:52:40;18.00;99.90
19172;DHT22;9718;52.200;21.052;2022-07-30T00:55:22;18.00;99.90
19172;DHT22;9718;52.200;21.052;2022-07-30T00:58:24;18.00;99.90
19172;DHT22;9718;52.200;21.052;2022-07-30T01:01:06;18.00;99.90
19172;DHT22;9718;52.200;21.052;2022-07-30T01:03:48;18.00;99.90
19172;DHT22;9718;52.200;21.052;2022-07-30T01:06:29;18.00;99.90
19172;DHT22;9718;52.200;21.052;2022-07-30T01:09:31;18.00;99.90
19172;DHT22;9718;52.200;21.052;2022-07-30T01:12:17;17.90;99.90
19172;DHT22;9718;52.200;21.052;2022-07-30T01:15:01;17.90;99.90
19172;DHT22;9718;52.200;21.052;2022-07-30T01:17:47;17.80;99.90
19172;DHT22;9718;52.200;21.052;2022-07-30T01:21:04;17.80;99.90
19172;DHT22;9718;52.200;21.052;2022-07-30T01:23:49;17.70;99.90
19172;DHT22;9718;52.200;21.052;2022-07-30T01:26:34;17.70;99.90
19172;DHT22;9718;52.200;21.052;2022-07-30T01:29:17;17.70;99.90
19172;DHT22;9718;52.200;21.052;2022-07-30T01:32:19;17.70;99.90
19172;DHT22;9718;52.200;21.052;2022-07-30T01:35:03;17.60;99.90
19172;DHT22;9718;52.200;21.052;2022-07-30T01:37:47;17.70;99.90
19172;DHT22;9718;52.200;21.052;2022-07-30T01:40:30;17.80;99.90
19172;DHT22;9718;52.200;21.052;2022-07-30T01:43:33;17.80;99.90
19172;DHT22;9718;52.200;21.052;2022-07-30T01:46:16;17.80;99.90
19172;DHT22;9718;52.200;21.052;2022-07-30T01:49:00;17.80;99.90
19172;DHT22;9718;52.200;21.052;2022-07-30T01:51:44;17.80;99.90
19172;DHT22;9718;52.200;21.052;2022-07-30T01:54:49;17.80;99.90
19172;DHT22;9718;52.200;21.052;2022-07-30T01:57:32;17.80;99.90
19172;DHT22;9718;52.200;21.052;2022-07-30T02:00:17;17.80;99.90
19172;DHT22;9718;52.200;21.052;2022-07-30T02:02:59;17.80;99.90
19172;DHT22;9718;52.200;21.052;2022-07-30T02:06:03;17.80;99.90
19172;DHT22;9718;52.200;21.052;2022-07-30T02:08:58;17.80;99.90
19172;DHT22;9718;52.200;21.052;2022-07-30T02:11:44;17.80;99.90
19172;DHT22;9718;52.200;21.052;2022-07-30T02:14:59;17.80;99.90
19172;DHT22;9718;52.200;21.052;2022-07-30T02:18:02;17.70;99.90
19172;DHT22;9718;52.200;21.052;2022-07-30T02:20:50;17.70;99.90
19172;DHT22;9718;52.200;21.052;2022-07-30T02:23:42;17.60;99.90
19172;DHT22;9718;52.200;21.052;2022-07-30T02:26:25;17.60;99.90
19172;DHT22;9718;52.200;21.052;2022-07-30T02:29:29;17.50;99.90
19172;DHT22;9718;52.200;21.052;2022-07-30T02:32:18;17.50;99.90
19172;DHT22;9718;52.200;21.052;2022-07-30T02:35:06;17.50;99.90
19172;DHT22;9718;52.200;21.052;2022-07-30T02:37:52;17.50;99.90
19172;DHT22;9718;52.200;21.052;2022-07-30T02:40:55;17.50;99.90
19172;DHT22;9718;52.200;21.052;2022-07-30T02:43:40;17.40;99.90
19172;DHT22;9718;52.200;21.052;2022-07-30T02:46:23;17.40;99.90
19172;DHT22;9718;52.200;21.052;2022-07-30T02:49:06;17.40;99.90
19172;DHT22;9718;52.200;21.052;2022-07-30T02:52:09;17.30;99.90
19172;DHT22;9718;52.200;21.052;2022-07-30T02:54:55;17.20;99.90
19172;DHT22;9718;52.200;21.052;2022-07-30T02:57:40;17.30;99.90
19172;DHT22;9718;52.200;21.052;2022-07-30T03:00:24;17.40;99.90
19172;DHT22;9718;52.200;21.052;2022-07-30T03:03:27;17.30;99.90
19172;DHT22;9718;52.200;21.052;2022-07-30T03:06:12;17.30;99.90
19172;DHT22;9718;52.200;21.052;2022-07-30T03:08:55;17.30;99.90
19172;DHT22;9718;52.200;21.052;2022-07-30T03:11:39;17.20;99.90
19172;DHT22;9718;52.200;21.052;2022-07-30T03:14:41;17.30;99.90
19172;DHT22;9718;52.200;21.052;2022-07-30T03:17:27;17.40;99.90
19172;DHT22;9718;52.200;21.052;2022-07-30T03:20:16;17.40;99.90
19172;DHT22;9718;52.200;21.052;2022-07-30T03:23:00;17.40;99.90
19172;DHT22;9718;52.200;21.052;2022-07-30T03:26:04;17.40;99.90
19172;DHT22;9718;52.200;21.052;2022-07-30T03:28:46;17.50;99.90
19172;DHT22;9718;52.200;21.052;2022-07-30T03:31:29;17.50;99.90
19172;DHT22;9718;52.200;21.052;2022-07-30T03:34:20;17.50;99.90
19172;DHT22;9718;52.200;21.052;2022-07-30T03:37:22;17.40;99.90
19172;DHT22;9718;52.200;21.052;2022-07-30T03:40:06;17.40;99.90
19172;DHT22;9718;52.200;21.052;2022-07-30T03:42:49;17.50;99.90
19172;DHT22;9718;52.200;21.052;2022-07-30T03:45:31;17.40;99.90
19172;DHT22;9718;52.200;21.052;2022-07-30T03:48:33;17.40;99.90
19172;DHT22;9718;52.200;21.052;2022-07-30T03:51:16;17.40;99.90
19172;DHT22;9718;52.200;21.052;2022-07-30T03:53:58;17.40;99.90
19172;DHT22;9718;52.200;21.052;2022-07-30T03:56:41;17.40;99.90
19172;DHT22;9718;52.200;21.052;2022-07-30T03:59:43;17.40;99.90
19172;DHT22;9718;52.200;21.052;2022-07-30T04:02:25;17.50;99.90
19172;DHT22;9718;52.200;21.052;2022-07-30T04:05:07;17.40;99.90
19172;DHT22;9718;52.200;21.052;2022-07-30T04:07:49;17.40;99.90
19172;DHT22;9718;52.200;21.052;2022-07-30T04:10:51;17.40;99.90
19172;DHT22;9718;52.200;21.052;2022-07-30T04:13:33;17.50;99.90
19172;DHT22;9718;52.200;21.052;2022-07-30T04:16:24;17.50;99.90
19172;DHT22;9718;52.200;21.052;2022-07-30T04:19:27;17.60;99.90
19172;DHT22;9718;52.200;21.052;2022-07-30T04:22:31;17.60;99.90
19172;DHT22;9718;52.200;21.052;2022-07-30T04:25:13;17.60;99.90
19172;DHT22;9718;52.200;21.052;2022-07-30T04:28:04;17.50;99.90
19172;DHT22;9718;52.200;21.052;2022-07-30T04:30:46;17.60;99.90
19172;DHT22;9718;52.200;21.052;2022-07-30T04:33:48;17.60;99.90
19172;DHT22;9718;52.200;21.052;2022-07-30T04:36:31;17.60;99.90
19172;DHT22;9718;52.200;21.052;2022-07-30T04:39:13;17.70;99.90
19172;DHT22;9718;52.200;21.052;2022-07-30T04:41:56;17.80;99.90
19172;DHT22;9718;52.200;21.052;2022-07-30T04:44:58;18.00;99.90
19172;DHT22;9718;52.200;21.052;2022-07-30T04:47:40;18.20;99.90
19172;DHT22;9718;52.200;21.052;2022-07-30T04:50:26;18.30;99.90
19172;DHT22;9718;52.200;21.052;2022-07-30T04:53:09;18.50;99.90
19172;DHT22;9718;52.200;21.052;2022-07-30T04:56:11;18.50;99.90
19172;DHT22;9718;52.200;21.052;2022-07-30T04:58:55;18.50;99.90
19172;DHT22;9718;52.200;21.052;2022-07-30T05:01:38;18.50;99.90
19172;DHT22;9718;52.200;21.052;2022-07-30T05:04:23;18.60;99.90
19172;DHT22;9718;52.200;21.052;2022-07-30T05:07:25;18.80;99.90
19172;DHT22;9718;52.200;21.052;2022-07-30T05:10:08;18.70;99.90
19172;DHT22;9718;52.200;21.052;2022-07-30T05:12:51;18.80;99.90
19172;DHT22;9718;52.200;21.052;2022-07-30T05:15:33;18.60;99.90
19172;DHT22;9718;52.200;21.052;2022-07-30T05:18:38;18.60;99.90
19172;DHT22;9718;52.200;21.052;2022-07-30T05:21:19;18.70;99.90
19172;DHT22;9718;52.200;21.052;2022-07-30T05:24:01;18.70;99.90
19172;DHT22;9718;52.200;21.052;2022-07-30T05:26:43;18.70;99.90
19172;DHT22;9718;52.200;21.052;2022-07-30T05:29:45;18.60;99.90
19172;DHT22;9718;52.200;21.052;2022-07-30T05:32:28;18.50;99.90
19172;DHT22;9718;52.200;21.052;2022-07-30T05:35:12;18.40;99.90
19172;DHT22;9718;52.200;21.052;2022-07-30T05:37:53;18.30;99.90
19172;DHT22;9718;52.200;21.052;2022-07-30T05:40:55;18.30;99.90
19172;DHT22;9718;52.200;21.052;2022-07-30T05:43:37;18.20;99.90
19172;DHT22;9718;52.200;21.052;2022-07-30T05:46:19;18.00;99.90
19172;DHT22;9718;52.200;21.052;2022-07-30T05:49:01;17.90;99.90
19172;DHT22;9718;52.200;21.052;2022-07-30T05:52:03;17.80;99.90
19172;DHT22;9718;52.200;21.052;2022-07-30T05:54:46;17.60;99.90
19172;DHT22;9718;52.200;21.052;2022-07-30T05:57:28;17.50;99.90
19172;DHT22;9718;52.200;21.052;2022-07-30T06:00:11;17.50;99.90
19172;DHT22;9718;52.200;21.052;2022-07-30T06:03:13;17.50;99.90
19172;DHT22;9718;52.200;21.052;2022-07-30T06:05:55;17.50;99.90
19172;DHT22;9718;52.200;21.052;2022-07-30T06:08:37;17.50;99.90
19172;DHT22;9718;52.200;21.052;2022-07-30T06:11:19;17.60;99.90
19172;DHT22;9718;52.200;21.052;2022-07-30T06:14:21;17.60;99.90
19172;DHT22;9718;52.200;21.052;2022-07-30T06:17:02;17.70;99.90
19172;DHT22;9718;52.200;21.052;2022-07-30T06:19:45;17.80;99.90
19172;DHT22;9718;52.200;21.052;2022-07-30T06:22:26;17.90;99.90
19172;DHT22;9718;52.200;21.052;2022-07-30T06:25:28;18.00;99.90
19172;DHT22;9718;52.200;21.052;2022-07-30T06:28:10;18.00;99.90
19172;DHT22;9718;52.200;21.052;2022-07-30T06:31:12;18.10;99.90
19172;DHT22;9718;52.200;21.052;2022-07-30T06:33:55;18.10;99.90
19172;DHT22;9718;52.200;21.052;2022-07-30T06:36:57;18.20;99.90
19172;DHT22;9718;52.200;21.052;2022-07-30T06:39:39;18.30;99.90
19172;DHT22;9718;52.200;21.052;2022-07-30T06:42:38;18.50;99.90
19172;DHT22;9718;52.200;21.052;2022-07-30T06:45:20;18.60;99.90
19172;DHT22;9718;52.200;21.052;2022-07-30T06:48:22;18.90;99.90
19172;DHT22;9718;52.200;21.052;2022-07-30T06:51:04;19.20;99.90
19172;DHT22;9718;52.200;21.052;2022-07-30T06:53:46;19.30;99.90
19172;DHT22;9718;52.200;21.052;2022-07-30T06:56:28;19.40;99.90
19172;DHT22;9718;52.200;21.052;2022-07-30T06:59:12;19.40;99.90
19172;DHT22;9718;52.200;21.052;2022-07-30T07:01:54;19.40;99.90
19172;DHT22;9718;52.200;21.052;2022-07-30T07:04:56;19.30;99.90
19172;DHT22;9718;52.200;21.052;2022-07-30T07:07:38;19.30;99.90
19172;DHT22;9718;52.200;21.052;2022-07-30T07:10:32;19.30;99.90
19172;DHT22;9718;52.200;21.052;2022-07-30T07:13:15;19.40;99.90
19172;DHT22;9718;52.200;21.052;2022-07-30T07:16:17;19.60;99.90
19172;DHT22;9718;52.200;21.052;2022-07-30T07:19:02;19.90;99.90
19172;DHT22;9718;52.200;21.052;2022-07-30T07:21:44;20.00;99.90
19172;DHT22;9718;52.200;21.052;2022-07-30T07:24:26;20.00;99.90
19172;DHT22;9718;52.200;21.052;2022-07-30T07:27:28;19.90;99.90
19172;DHT22;9718;52.200;21.052;2022-07-30T07:30:10;19.90;99.90
19172;DHT22;9718;52.200;21.052;2022-07-30T07:32:52;19.80;99.90
19172;DHT22;9718;52.200;21.052;2022-07-30T07:35:34;19.80;99.90
19172;DHT22;9718;52.200;21.052;2022-07-30T07:38:50;20.00;99.90
19172;DHT22;9718;52.200;21.052;2022-07-30T07:41:32;20.20;99.90
19172;DHT22;9718;52.200;21.052;2022-07-30T07:44:30;20.50;99.90
19172;DHT22;9718;52.200;21.052;2022-07-30T07:47:11;20.70;99.90
19172;DHT22;9718;52.200;21.052;2022-07-30T07:50:14;21.00;99.90
19172;DHT22;9718;52.200;21.052;2022-07-30T07:52:56;21.30;99.90
19172;DHT22;9718;52.200;21.052;2022-07-30T07:55:38;21.40;99.90
19172;DHT22;9718;52.200;21.052;2022-07-30T07:58:20;21.50;99.90
19172;DHT22;9718;52.200;21.052;2022-07-30T08:01:27;22.00;99.90
19172;DHT22;9718;52.200;21.052;2022-07-30T08:04:09;22.00;99.90
19172;DHT22;9718;52.200;21.052;2022-07-30T08:06:51;21.90;99.90
19172;DHT22;9718;52.200;21.052;2022-07-30T08:09:33;22.30;99.90
19172;DHT22;9718;52.200;21.052;2022-07-30T08:12:45;22.30;99.90
19172;DHT22;9718;52.200;21.052;2022-07-30T08:15:27;22.10;99.90
19172;DHT22;9718;52.200;21.052;2022-07-30T08:18:08;22.00;99.90
19172;DHT22;9718;52.200;21.052;2022-07-30T08:20:51;22.20;99.90
19172;DHT22;9718;52.200;21.052;2022-07-30T08:23:53;22.30;99.90
19172;DHT22;9718;52.200;21.052;2022-07-30T08:26:35;22.70;99.90
19172;DHT22;9718;52.200;21.052;2022-07-30T08:29:17;22.80;99.90
19172;DHT22;9718;52.200;21.052;2022-07-30T08:31:59;22.90;99.90
19172;DHT22;9718;52.200;21.052;2022-07-30T08:35:01;23.20;99.90
19172;DHT22;9718;52.200;21.052;2022-07-30T08:37:43;22.80;99.90
19172;DHT22;9718;52.200;21.052;2022-07-30T08:40:25;22.50;99.90
19172;DHT22;9718;52.200;21.052;2022-07-30T08:43:07;22.60;99.90
19172;DHT22;9718;52.200;21.052;2022-07-30T08:46:09;22.70;99.90
19172;DHT22;9718;52.200;21.052;2022-07-30T08:48:53;22.90;99.90
19172;DHT22;9718;52.200;21.052;2022-07-30T08:51:35;23.30;99.90
19172;DHT22;9718;52.200;21.052;2022-07-30T08:54:18;23.30;99.90
19172;DHT22;9718;52.200;21.052;2022-07-30T08:57:20;23.50;99.90
19172;DHT22;9718;52.200;21.052;2022-07-30T09:00:03;23.60;99.90
19172;DHT22;9718;52.200;21.052;2022-07-30T09:02:46;23.50;99.90
19172;DHT22;9718;52.200;21.052;2022-07-30T09:05:28;23.60;99.90
19172;DHT22;9718;52.200;21.052;2022-07-30T09:08:30;23.60;99.90
19172;DHT22;9718;52.200;21.052;2022-07-30T09:11:12;23.80;99.90
19172;DHT22;9718;52.200;21.052;2022-07-30T09:13:54;23.90;99.90
19172;DHT22;9718;52.200;21.052;2022-07-30T09:16:55;24.00;99.90
19172;DHT22;9718;52.200;21.052;2022-07-30T09:20:02;24.10;99.90
19172;DHT22;9718;52.200;21.052;2022-07-30T09:22:47;24.30;99.90
19172;DHT22;9718;52.200;21.052;2022-07-30T09:25:45;24.40;99.90
19172;DHT22;9718;52.200;21.052;2022-07-30T09:28:30;24.40;99.90
19172;DHT22;9718;52.200;21.052;2022-07-30T09:31:33;24.50;99.90
19172;DHT22;9718;52.200;21.052;2022-07-30T09:34:35;24.30;99.90
19172;DHT22;9718;52.200;21.052;2022-07-30T09:37:17;24.10;99.90
19172;DHT22;9718;52.200;21.052;2022-07-30T09:40:10;24.00;99.90
19172;DHT22;9718;52.200;21.052;2022-07-30T09:43:28;23.90;99.90
19172;DHT22;9718;52.200;21.052;2022-07-30T09:46:10;23.60;99.90
19172;DHT22;9718;52.200;21.052;2022-07-30T09:49:15;23.60;99.90
19172;DHT22;9718;52.200;21.052;2022-07-30T09:51:59;23.60;99.90
19172;DHT22;9718;52.200;21.052;2022-07-30T09:55:07;23.60;99.90
19172;DHT22;9718;52.200;21.052;2022-07-30T09:57:56;23.50;99.90
19172;DHT22;9718;52.200;21.052;2022-07-30T10:00:41;23.50;99.90
19172;DHT22;9718;52.200;21.052;2022-07-30T10:03:24;23.30;99.90
19172;DHT22;9718;52.200;21.052;2022-07-30T10:06:39;23.30;99.90
19172;DHT22;9718;52.200;21.052;2022-07-30T10:09:30;23.00;99.90
19172;DHT22;9718;52.200;21.052;2022-07-30T10:12:32;23.00;99.90
19172;DHT22;9718;52.200;21.052;2022-07-30T10:15:18;23.10;99.90
19172;DHT22;9718;52.200;21.052;2022-07-30T10:18:03;23.00;99.90
19172;DHT22;9718;52.200;21.052;2022-07-30T10:20:47;22.90;99.90
19172;DHT22;9718;52.200;21.052;2022-07-30T10:23:50;22.70;99.90
19172;DHT22;9718;52.200;21.052;2022-07-30T10:26:33;22.50;99.90
19172;DHT22;9718;52.200;21.052;2022-07-30T10:29:17;22.40;99.90
19172;DHT22;9718;52.200;21.052;2022-07-30T10:31:59;22.20;99.90
19172;DHT22;9718;52.200;21.052;2022-07-30T10:35:03;22.20;99.90
19172;DHT22;9718;52.200;21.052;2022-07-30T10:37:48;22.30;99.90
19172;DHT22;9718;52.200;21.052;2022-07-30T10:40:59;22.30;99.90
19172;DHT22;9718;52.200;21.052;2022-07-30T10:47:21;22.20;99.90
19172;DHT22;9718;52.200;21.052;2022-07-30T10:50:19;22.10;99.90
19172;DHT22;9718;52.200;21.052;2022-07-30T10:53:03;22.10;99.90
19172;DHT22;9718;52.200;21.052;2022-07-30T10:55:45;21.90;99.90
19172;DHT22;9718;52.200;21.052;2022-07-30T10:59:25;21.80;99.90
19172;DHT22;9718;52.200;21.052;2022-07-30T11:02:09;21.50;99.90
19172;DHT22;9718;52.200;21.052;2022-07-30T11:05:27;21.40;99.90
19172;DHT22;9718;52.200;21.052;2022-07-30T11:08:37;21.30;99.90
19172;DHT22;9718;52.200;21.052;2022-07-30T11:15:01;20.90;99.90
19172;DHT22;9718;52.200;21.052;2022-07-30T11:20:41;20.40;99.90
19172;DHT22;9718;52.200;21.052;2022-07-30T11:23:36;20.30;99.90
19172;DHT22;9718;52.200;21.052;2022-07-30T11:29:53;20.20;99.90
19172;DHT22;9718;52.200;21.052;2022-07-30T11:32:35;20.10;99.90
19172;DHT22;9718;52.200;21.052;2022-07-30T11:35:40;20.00;99.90
19172;DHT22;9718;52.200;21.052;2022-07-30T11:38:56;19.90;99.90
19172;DHT22;9718;52.200;21.052;2022-07-30T11:45:26;19.50;99.90
19172;DHT22;9718;52.200;21.052;2022-07-30T11:48:13;19.20;99.90
19172;DHT22;9718;52.200;21.052;2022-07-30T11:50:56;19.20;99.90
19172;DHT22;9718;52.200;21.052;2022-07-30T11:54:04;19.00;99.90
19172;DHT22;9718;52.200;21.052;2022-07-30T11:56:54;19.00;99.90
19172;DHT22;9718;52.200;21.052;2022-07-30T11:59:55;18.90;99.90
19172;DHT22;9718;52.200;21.052;2022-07-30T12:02:37;18.90;99.90
19172;DHT22;9718;52.200;21.052;2022-07-30T12:05:42;18.80;99.90
19172;DHT22;9718;52.200;21.052;2022-07-30T12:08:24;18.80;99.90
19172;DHT22;9718;52.200;21.052;2022-07-30T12:11:16;18.90;99.90
19172;DHT22;9718;52.200;21.052;2022-07-30T12:13:59;18.80;99.90
19172;DHT22;9718;52.200;21.052;2022-07-30T12:17:02;18.80;99.90
19172;DHT22;9718;52.200;21.052;2022-07-30T12:19:47;18.70;99.90
19172;DHT22;9718;52.200;21.052;2022-07-30T12:22:31;18.70;99.90
19172;DHT22;9718;52.200;21.052;2022-07-30T12:25:13;18.60;99.90
19172;DHT22;9718;52.200;21.052;2022-07-30T12:31:03;18.60;99.90
19172;DHT22;9718;52.200;21.052;2022-07-30T12:33:45;18.60;99.90
19172;DHT22;9718;52.200;21.052;2022-07-30T12:36:31;18.60;99.90
19172;DHT22;9718;52.200;21.052;2022-07-30T12:39:42;18.60;99.90
19172;DHT22;9718;52.200;21.052;2022-07-30T12:42:24;18.60;99.90
19172;DHT22;9718;52.200;21.052;2022-07-30T12:45:25;18.60;99.90
19172;DHT22;9718;52.200;21.052;2022-07-30T12:48:10;18.60;99.90
19172;DHT22;9718;52.200;21.052;2022-07-30T12:51:13;18.60;99.90
19172;DHT22;9718;52.200;21.052;2022-07-30T12:53:55;18.70;99.90
19172;DHT22;9718;52.200;21.052;2022-07-30T12:56:37;18.80;99.90
19172;DHT22;9718;52.200;21.052;2022-07-30T12:59:21;18.80;99.90
19172;DHT22;9718;52.200;21.052;2022-07-30T13:02:32;18.90;99.90
19172;DHT22;9718;52.200;21.052;2022-07-30T13:05:14;19.00;99.90
19172;DHT22;9718;52.200;21.052;2022-07-30T13:07:58;19.10;99.90
19172;DHT22;9718;52.200;21.052;2022-07-30T13:10:59;19.20;99.90
19172;DHT22;9718;52.200;21.052;2022-07-30T13:14:01;19.30;99.90
19172;DHT22;9718;52.200;21.052;2022-07-30T13:16:43;19.40;99.90
19172;DHT22;9718;52.200;21.052;2022-07-30T13:19:25;19.40;99.90
19172;DHT22;9718;52.200;21.052;2022-07-30T13:22:08;19.50;99.90
19172;DHT22;9718;52.200;21.052;2022-07-30T13:25:10;19.50;99.90
19172;DHT22;9718;52.200;21.052;2022-07-30T13:27:52;19.50;99.90
19172;DHT22;9718;52.200;21.052;2022-07-30T13:30:34;19.50;99.90
19172;DHT22;9718;52.200;21.052;2022-07-30T13:33:16;19.50;99.90
19172;DHT22;9718;52.200;21.052;2022-07-30T13:36:17;19.50;99.90
19172;DHT22;9718;52.200;21.052;2022-07-30T13:38:59;19.40;99.90
19172;DHT22;9718;52.200;21.052;2022-07-30T13:41:41;19.40;99.90
19172;DHT22;9718;52.200;21.052;2022-07-30T13:44:23;19.40;99.90
19172;DHT22;9718;52.200;21.052;2022-07-30T13:47:25;19.30;99.90
19172;DHT22;9718;52.200;21.052;2022-07-30T13:50:07;19.20;99.90
19172;DHT22;9718;52.200;21.052;2022-07-30T13:52:49;19.10;99.90
19172;DHT22;9718;52.200;21.052;2022-07-30T13:55:30;19.10;99.90
19172;DHT22;9718;52.200;21.052;2022-07-30T13:58:33;19.10;99.90
19172;DHT22;9718;52.200;21.052;2022-07-30T14:01:16;19.10;99.90
19172;DHT22;9718;52.200;21.052;2022-07-30T14:03:59;19.00;99.90
19172;DHT22;9718;52.200;21.052;2022-07-30T14:06:41;19.00;99.90
19172;DHT22;9718;52.200;21.052;2022-07-30T14:09:42;19.00;99.90
19172;DHT22;9718;52.200;21.052;2022-07-30T14:12:28;18.90;99.90
19172;DHT22;9718;52.200;21.052;2022-07-30T14:15:10;18.90;99.90
19172;DHT22;9718;52.200;21.052;2022-07-30T14:17:59;18.80;99.90
19172;DHT22;9718;52.200;21.052;2022-07-30T14:21:01;18.70;99.90
19172;DHT22;9718;52.200;21.052;2022-07-30T14:23:43;18.70;99.90
19172;DHT22;9718;52.200;21.052;2022-07-30T14:26:25;18.70;99.90
19172;DHT22;9718;52.200;21.052;2022-07-30T14:29:17;18.60;99.90
19172;DHT22;9718;52.200;21.052;2022-07-30T14:32:18;18.60;99.90
19172;DHT22;9718;52.200;21.052;2022-07-30T14:35:05;18.60;99.90
19172;DHT22;9718;52.200;21.052;2022-07-30T14:37:49;18.70;99.90
19172;DHT22;9718;52.200;21.052;2022-07-30T14:40:31;18.60;99.90
19172;DHT22;9718;52.200;21.052;2022-07-30T14:43:33;18.70;99.90
19172;DHT22;9718;52.200;21.052;2022-07-30T14:46:14;18.80;99.90
19172;DHT22;9718;52.200;21.052;2022-07-30T14:48:56;18.80;99.90
19172;DHT22;9718;52.200;21.052;2022-07-30T14:51:38;18.80;99.90
19172;DHT22;9718;52.200;21.052;2022-07-30T14:54:40;18.80;99.90
19172;DHT22;9718;52.200;21.052;2022-07-30T14:57:22;18.80;99.90
19172;DHT22;9718;52.200;21.052;2022-07-30T15:00:05;18.80;99.90
19172;DHT22;9718;52.200;21.052;2022-07-30T15:02:52;18.90;99.90
19172;DHT22;9718;52.200;21.052;2022-07-30T15:05:54;18.90;99.90
19172;DHT22;9718;52.200;21.052;2022-07-30T15:08:35;19.00;99.90
19172;DHT22;9718;52.200;21.052;2022-07-30T15:11:17;19.00;99.90
19172;DHT22;9718;52.200;21.052;2022-07-30T15:14:02;18.90;99.90
19172;DHT22;9718;52.200;21.052;2022-07-30T15:17:04;18.90;99.90
19172;DHT22;9718;52.200;21.052;2022-07-30T15:19:46;19.00;99.90
19172;DHT22;9718;52.200;21.052;2022-07-30T15:22:31;19.00;99.90
19172;DHT22;9718;52.200;21.052;2022-07-30T15:25:13;19.10;99.90
19172;DHT22;9718;52.200;21.052;2022-07-30T15:28:15;19.10;99.90
19172;DHT22;9718;52.200;21.052;2022-07-30T15:30:57;19.00;99.90
19172;DHT22;9718;52.200;21.052;2022-07-30T15:33:39;19.00;99.90
19172;DHT22;9718;52.200;21.052;2022-07-30T15:36:26;19.10;99.90
19172;DHT22;9718;52.200;21.052;2022-07-30T15:39:30;19.00;99.90
19172;DHT22;9718;52.200;21.052;2022-07-30T15:42:13;19.10;99.90
19172;DHT22;9718;52.200;21.052;2022-07-30T15:44:55;19.10;99.90
19172;DHT22;9718;52.200;21.052;2022-07-30T15:47:56;19.10;99.90
19172;DHT22;9718;52.200;21.052;2022-07-30T15:50:59;19.20;99.90
19172;DHT22;9718;52.200;21.052;2022-07-30T15:53:42;19.10;99.90
19172;DHT22;9718;52.200;21.052;2022-07-30T15:56:23;19.20;99.90
19172;DHT22;9718;52.200;21.052;2022-07-30T15:59:07;19.30;99.90
19172;DHT22;9718;52.200;21.052;2022-07-30T16:02:09;19.40;99.90
19172;DHT22;9718;52.200;21.052;2022-07-30T16:04:51;19.30;99.90
19172;DHT22;9718;52.200;21.052;2022-07-30T16:07:33;19.30;99.90
19172;DHT22;9718;52.200;21.052;2022-07-30T16:10:15;19.30;99.90
19172;DHT22;9718;52.200;21.052;2022-07-30T16:13:17;19.30;99.90
19172;DHT22;9718;52.200;21.052;2022-07-30T16:15:59;19.40;99.90
19172;DHT22;9718;52.200;21.052;2022-07-30T16:18:41;19.40;99.90
19172;DHT22;9718;52.200;21.052;2022-07-30T16:21:23;19.40;99.90
19172;DHT22;9718;52.200;21.052;2022-07-30T16:24:25;19.40;99.90
19172;DHT22;9718;52.200;21.052;2022-07-30T16:27:07;19.40;99.90
19172;DHT22;9718;52.200;21.052;2022-07-30T16:29:48;19.30;99.90
19172;DHT22;9718;52.200;21.052;2022-07-30T16:32:30;19.40;99.90
19172;DHT22;9718;52.200;21.052;2022-07-30T16:35:32;19.30;99.90
19172;DHT22;9718;52.200;21.052;2022-07-30T16:38:29;19.40;99.90
19172;DHT22;9718;52.200;21.052;2022-07-30T16:41:11;19.30;99.90
19172;DHT22;9718;52.200;21.052;2022-07-30T16:43:54;19.30;99.90
19172;DHT22;9718;52.200;21.052;2022-07-30T16:46:56;19.40;99.90
19172;DHT22;9718;52.200;21.052;2022-07-30T16:49:38;19.40;99.90
19172;DHT22;9718;52.200;21.052;2022-07-30T16:52:20;19.40;99.90
19172;DHT22;9718;52.200;21.052;2022-07-30T16:55:07;19.30;99.90
19172;DHT22;9718;52.200;21.052;2022-07-30T16:58:09;19.40;99.90
19172;DHT22;9718;52.200;21.052;2022-07-30T17:00:52;19.40;99.90
19172;DHT22;9718;52.200;21.052;2022-07-30T17:03:34;19.30;99.90
19172;DHT22;9718;52.200;21.052;2022-07-30T17:06:16;19.30;99.90
19172;DHT22;9718;52.200;21.052;2022-07-30T17:09:18;19.40;99.90
19172;DHT22;9718;52.200;21.052;2022-07-30T17:12:01;19.30;99.90
19172;DHT22;9718;52.200;21.052;2022-07-30T17:14:44;19.20;99.90
19172;DHT22;9718;52.200;21.052;2022-07-30T17:17:26;19.10;99.90
19172;DHT22;9718;52.200;21.052;2022-07-30T17:20:28;19.00;99.90
19172;DHT22;9718;52.200;21.052;2022-07-30T17:23:10;18.90;99.90
19172;DHT22;9718;52.200;21.052;2022-07-30T17:25:52;18.80;99.90
19172;DHT22;9718;52.200;21.052;2022-07-30T17:28:34;18.70;99.90
19172;DHT22;9718;52.200;21.052;2022-07-30T17:31:36;18.60;99.90
19172;DHT22;9718;52.200;21.052;2022-07-30T17:34:20;18.50;99.90
19172;DHT22;9718;52.200;21.052;2022-07-30T17:37:02;18.50;99.90
19172;DHT22;9718;52.200;21.052;2022-07-30T17:39:45;18.40;99.90
19172;DHT22;9718;52.200;21.052;2022-07-30T17:42:47;18.20;99.90
19172;DHT22;9718;52.200;21.052;2022-07-30T17:45:29;18.00;99.90
19172;DHT22;9718;52.200;21.052;2022-07-30T17:48:11;18.00;99.90
19172;DHT22;9718;52.200;21.052;2022-07-30T17:50:53;17.90;99.90
19172;DHT22;9718;52.200;21.052;2022-07-30T17:53:56;17.90;99.90
19172;DHT22;9718;52.200;21.052;2022-07-30T17:56:38;17.80;99.90
19172;DHT22;9718;52.200;21.052;2022-07-30T17:59:19;17.80;99.90
19172;DHT22;9718;52.200;21.052;2022-07-30T18:02:02;17.80;99.90
19172;DHT22;9718;52.200;21.052;2022-07-30T18:05:05;17.80;99.90
19172;DHT22;9718;52.200;21.052;2022-07-30T18:07:47;17.70;99.90
19172;DHT22;9718;52.200;21.052;2022-07-30T18:10:30;17.70;99.90